createdAt,value
2022-11-15T00:00:55.552Z,8.07
2022-11-15T00:03:24.755Z,7.53
2022-11-15T00:05:51.533Z,7.93
2022-11-15T00:08:18.206Z,7.88
2022-11-15T00:10:55.152Z,7.80
2022-11-15T00:13:21.609Z,8.38
2022-11-15T00:15:48.106Z,8.43
2022-11-15T00:18:15.653Z,8.13
2022-11-15T00:20:42.304Z,8.15
2022-11-15T00:23:08.850Z,6.93
2022-11-15T00:25:35.750Z,8.27
2022-11-15T00:28:02.782Z,8.57
2022-11-15T00:30:32.641Z,7.75
2022-11-15T00:33:06.269Z,7.53
2022-11-15T00:35:36.473Z,8.00
2022-11-15T00:38:03.728Z,8.23
2022-11-15T00:40:33.619Z,7.82
2022-11-15T00:43:00.250Z,8.00
2022-11-15T00:45:29.349Z,7.55
2022-11-15T00:47:55.839Z,7.93
2022-11-15T00:50:22.327Z,7.45
2022-11-15T00:52:49.093Z,9.18
2022-11-15T00:55:17.262Z,8.13
2022-11-15T00:57:43.867Z,7.97
2022-11-15T01:00:14.349Z,7.88
2022-11-15T01:02:40.858Z,8.07
2022-11-15T01:05:08.153Z,8.40
2022-11-15T01:07:35.033Z,7.63
2022-11-15T01:10:01.721Z,7.75
2022-11-15T01:12:28.417Z,7.10
2022-11-15T01:14:54.978Z,7.72
2022-11-15T01:17:21.482Z,7.70
2022-11-15T01:19:50.732Z,7.75
2022-11-15T01:22:17.709Z,8.60
2022-11-15T01:24:47.257Z,8.73
2022-11-15T01:27:13.708Z,8.30
2022-11-15T01:29:40.169Z,7.70
2022-11-15T01:32:06.808Z,7.93
2022-11-15T01:34:33.320Z,7.47
2022-11-15T01:36:59.869Z,8.13
2022-11-15T01:39:27.331Z,8.18
2022-11-15T01:41:54.236Z,7.25
2022-11-15T01:44:38.705Z,7.30
2022-11-15T01:47:13.188Z,7.45
2022-11-15T01:49:43.228Z,6.72
2022-11-15T01:52:21.362Z,8.20
2022-11-15T01:54:51.158Z,7.22
2022-11-15T01:57:17.719Z,7.65
2022-11-15T01:59:46.498Z,6.47
2022-11-15T02:02:13.307Z,7.30
2022-11-15T02:04:43.737Z,7.28
2022-11-15T02:07:13.310Z,6.45
2022-11-15T02:09:42.880Z,6.45
2022-11-15T02:12:10.956Z,6.75
2022-11-15T02:14:40.511Z,6.40
2022-11-15T02:17:09.871Z,6.10
2022-11-15T02:19:50.013Z,6.50
2022-11-15T02:22:47.028Z,6.25
2022-11-15T02:25:13.427Z,6.88
2022-11-15T02:27:45.840Z,6.60
2022-11-15T02:30:44.502Z,6.07
2022-11-15T02:33:20.011Z,6.15
2022-11-15T02:35:59.560Z,6.30
2022-11-15T02:38:32.440Z,6.60
2022-11-15T02:41:14.132Z,7.00
2022-11-15T02:43:58.095Z,7.18
2022-11-15T02:47:05.539Z,6.90
2022-11-15T02:49:34.937Z,6.78
2022-11-15T02:52:01.578Z,7.07
2022-11-15T02:54:34.355Z,6.70
2022-11-15T02:57:11.436Z,7.00
2022-11-15T02:59:55.931Z,6.13
2022-11-15T03:02:34.622Z,6.60
2022-11-15T03:05:10.469Z,6.55
2022-11-15T03:07:58.088Z,6.40
2022-11-15T03:10:43.569Z,5.95
2022-11-15T03:13:09.965Z,6.13
2022-11-15T03:15:45.458Z,6.30
2022-11-15T03:18:16.298Z,6.47
2022-11-15T03:20:43.907Z,6.28
2022-11-15T03:23:11.969Z,6.15
2022-11-15T03:25:43.971Z,5.93
2022-11-15T03:30:43.990Z,5.85
2022-11-15T03:33:12.297Z,6.15
2022-11-15T03:35:43.514Z,5.68
2022-11-15T03:38:21.156Z,5.55
2022-11-15T03:40:59.359Z,5.65
2022-11-15T03:43:44.348Z,5.78
2022-11-15T03:46:15.620Z,5.40
2022-11-15T03:48:47.163Z,5.65
2022-11-15T03:51:14.697Z,5.30
2022-11-15T03:53:42.235Z,5.53
2022-11-15T03:56:08.745Z,5.10
2022-11-15T03:58:35.300Z,5.25
2022-11-15T04:01:01.816Z,5.60
2022-11-15T04:03:28.452Z,5.53
2022-11-15T04:05:55.024Z,5.43
2022-11-15T04:08:21.658Z,4.97
2022-11-15T04:10:50.088Z,5.03
2022-11-15T04:13:16.574Z,5.22
2022-11-15T04:15:43.038Z,4.60
2022-11-15T04:18:10.806Z,4.78
2022-11-15T04:20:55.567Z,4.75
2022-11-15T04:23:42.917Z,5.05
2022-11-15T04:26:13.497Z,4.78
2022-11-15T04:28:58.597Z,4.63
2022-11-15T04:31:25.115Z,4.63
2022-11-15T04:33:51.646Z,4.50
2022-11-15T04:36:36.772Z,4.50
2022-11-15T04:39:03.815Z,3.95
2022-11-15T04:41:30.377Z,4.10
2022-11-15T04:43:57.127Z,4.18
2022-11-15T04:46:24.968Z,3.85
2022-11-15T04:48:58.029Z,3.97
2022-11-15T04:51:25.290Z,4.50
2022-11-15T04:53:51.773Z,4.50
2022-11-15T04:56:18.237Z,4.53
2022-11-15T04:58:44.681Z,4.35
2022-11-15T05:01:15.469Z,4.60
2022-11-15T05:04:01.531Z,5.32
2022-11-15T05:06:28.133Z,6.15
2022-11-15T05:08:54.609Z,4.35
2022-11-15T05:11:21.688Z,4.55
2022-11-15T05:13:51.558Z,5.28
2022-11-15T05:16:18.082Z,5.18
2022-11-15T05:18:44.632Z,5.30
2022-11-15T05:21:14.138Z,5.10
2022-11-15T05:23:41.935Z,5.53
2022-11-15T05:26:09.905Z,5.18
2022-11-15T05:28:40.445Z,5.65
2022-11-15T05:31:11.747Z,5.10
2022-11-15T05:33:42.235Z,5.43
2022-11-15T05:36:32.585Z,6.32
2022-11-15T05:38:59.150Z,7.32
2022-11-15T05:41:33.339Z,5.18
2022-11-15T05:44:02.162Z,5.55
2022-11-15T05:46:30.260Z,5.03
2022-11-15T05:48:57.772Z,6.00
2022-11-15T05:51:24.371Z,7.00
2022-11-15T05:53:52.850Z,9.15
2022-11-15T05:56:22.332Z,6.35
2022-11-15T05:58:48.882Z,4.90
2022-11-15T06:01:15.496Z,5.60
2022-11-15T06:03:42.033Z,5.97
2022-11-15T06:06:12.335Z,5.50
2022-11-15T06:08:42.639Z,5.30
2022-11-15T06:11:09.110Z,4.75
2022-11-15T06:13:35.822Z,4.50
2022-11-15T06:16:02.570Z,4.93
2022-11-15T06:18:29.196Z,5.18
2022-11-15T06:20:59.807Z,5.10
2022-11-15T06:23:26.421Z,5.38
2022-11-15T06:25:52.890Z,7.60
2022-11-15T06:28:19.426Z,7.72
2022-11-15T06:30:49.181Z,7.60
2022-11-15T06:33:19.482Z,7.75
2022-11-15T06:35:48.541Z,7.63
2022-11-15T06:38:15.026Z,6.78
2022-11-15T06:40:41.600Z,5.78
2022-11-15T06:43:08.642Z,6.70
2022-11-15T06:45:35.298Z,5.70
2022-11-15T06:48:01.799Z,5.57
2022-11-15T06:50:28.316Z,5.70
2022-11-15T06:52:55.556Z,5.97
2022-11-15T06:55:22.290Z,5.45
2022-11-15T06:57:52.907Z,5.15
2022-11-15T07:00:20.994Z,5.63
2022-11-15T07:02:48.131Z,4.90
2022-11-15T07:05:15.594Z,5.28
2022-11-15T07:07:42.169Z,5.65
2022-11-15T07:10:10.189Z,5.10
2022-11-15T07:12:36.969Z,5.30
2022-11-15T07:15:03.683Z,4.90
2022-11-15T07:17:30.182Z,4.78
2022-11-15T07:19:56.636Z,4.38
2022-11-15T07:22:23.108Z,4.70
2022-11-15T07:24:49.615Z,4.70
2022-11-15T07:27:16.491Z,4.63
2022-11-15T07:29:43.274Z,4.40
2022-11-15T07:32:10.525Z,4.80
2022-11-15T07:34:36.983Z,4.50
2022-11-15T07:37:06.298Z,5.30
2022-11-15T07:39:32.752Z,5.00
2022-11-15T07:42:18.671Z,4.50
2022-11-15T07:44:45.138Z,4.72
2022-11-15T07:47:11.584Z,4.10
2022-11-15T07:49:38.078Z,4.80
2022-11-15T07:52:04.765Z,4.97
2022-11-15T07:54:31.277Z,4.63
2022-11-15T07:57:00.163Z,4.57
2022-11-15T07:59:29.063Z,4.50
2022-11-15T08:01:55.592Z,4.57
2022-11-15T08:04:24.590Z,4.43
2022-11-15T08:06:51.087Z,3.97
2022-11-15T08:09:17.612Z,4.05
2022-11-15T08:11:44.121Z,3.78
2022-11-15T08:14:10.619Z,4.10
2022-11-15T08:16:37.084Z,4.00
2022-11-15T08:19:03.738Z,3.78
2022-11-15T08:21:30.216Z,4.05
2022-11-15T08:23:59.778Z,3.45
2022-11-15T08:26:30.053Z,3.30
2022-11-15T08:28:56.652Z,3.42
2022-11-15T08:31:23.157Z,3.38
2022-11-15T08:33:49.657Z,3.40
2022-11-15T08:36:17.857Z,3.60
2022-11-15T08:38:44.430Z,3.47
2022-11-15T08:41:18.053Z,3.70
2022-11-15T08:43:44.529Z,3.67
2022-11-15T08:46:14.712Z,3.47
2022-11-15T08:48:41.257Z,4.05
2022-11-15T08:51:07.875Z,3.75
2022-11-15T08:53:35.267Z,3.67
2022-11-15T08:56:02.621Z,3.65
2022-11-15T08:58:29.913Z,3.50
2022-11-15T09:00:56.901Z,3.95
2022-11-15T09:03:23.442Z,3.30
2022-11-15T09:05:49.985Z,3.60
2022-11-15T09:08:45.608Z,3.28
2022-11-15T09:11:10.804Z,3.20
2022-11-15T09:13:38.107Z,3.17
2022-11-15T09:16:05.192Z,3.42
2022-11-15T09:18:32.569Z,3.00
2022-11-15T09:21:00.314Z,2.90
2022-11-15T09:23:27.655Z,2.90
2022-11-15T09:26:00.654Z,3.17
2022-11-15T09:28:27.188Z,2.60
2022-11-15T09:31:00.526Z,2.80
2022-11-15T09:33:27.827Z,2.78
2022-11-15T09:35:54.750Z,2.75
2022-11-15T09:38:21.591Z,2.70
2022-11-15T09:40:58.580Z,2.78
2022-11-15T09:43:29.330Z,2.70
2022-11-15T09:46:13.493Z,2.75
2022-11-15T09:48:49.300Z,2.38
2022-11-15T09:51:26.173Z,2.80
2022-11-15T09:57:16.097Z,2.78
2022-11-15T10:00:44.794Z,2.78
2022-11-15T10:03:03.447Z,2.63
2022-11-15T10:05:31.370Z,2.92
2022-11-15T10:07:57.825Z,2.60
2022-11-15T10:10:44.754Z,2.33
2022-11-15T10:13:30.272Z,2.47
2022-11-15T10:16:20.814Z,2.55
2022-11-15T10:19:20.888Z,2.47
2022-11-15T10:22:24.978Z,2.55
2022-11-15T15:23:37.408Z,5.80
2022-11-15T15:26:04.165Z,5.13
2022-11-15T15:28:34.542Z,4.20
2022-11-15T15:31:02.085Z,4.30
2022-11-15T15:33:28.532Z,3.90
2022-11-15T15:35:55.033Z,3.70
2022-11-15T15:38:24.878Z,3.53
2022-11-15T15:40:51.893Z,3.58
2022-11-15T15:43:18.522Z,3.58
2022-11-15T15:45:45.962Z,3.60
2022-11-15T15:48:14.950Z,3.30
2022-11-15T15:50:43.788Z,3.60
2022-11-15T15:53:12.066Z,3.40
2022-11-15T15:55:38.839Z,3.58
2022-11-15T15:58:06.361Z,3.22
2022-11-15T16:00:36.053Z,3.30
2022-11-15T16:03:02.703Z,3.55
2022-11-15T16:05:29.257Z,3.55
2022-11-15T16:07:55.790Z,3.22
2022-11-15T16:10:30.760Z,3.92
2022-11-15T16:12:58.589Z,3.50
2022-11-15T16:15:27.419Z,3.75
2022-11-15T16:17:58.507Z,3.60
2022-11-15T16:20:32.275Z,4.30
2022-11-15T16:23:04.392Z,3.53
2022-11-15T16:25:47.991Z,3.63
2022-11-15T16:28:28.697Z,3.88
2022-11-15T16:31:05.583Z,4.00
2022-11-15T16:33:32.839Z,4.03
2022-11-15T16:35:59.659Z,4.25
2022-11-15T16:38:26.200Z,3.92
2022-11-15T16:40:52.715Z,4.10
2022-11-15T16:43:19.410Z,4.25
2022-11-15T16:45:45.944Z,3.80
2022-11-15T16:48:27.135Z,4.13
2022-11-15T16:50:58.686Z,3.95
2022-11-15T16:53:26.422Z,4.28
2022-11-15T16:55:53.347Z,4.25
2022-11-15T16:58:19.788Z,4.15
2022-11-15T17:00:50.356Z,4.32
2022-11-15T17:03:16.871Z,4.35
2022-11-15T17:05:43.359Z,4.40
2022-11-15T17:08:09.818Z,4.28
2022-11-15T17:10:44.185Z,5.32
2022-11-15T17:13:13.373Z,4.70
2022-11-15T17:15:40.150Z,4.78
2022-11-15T17:18:06.948Z,4.50
2022-11-15T17:20:33.666Z,4.47
2022-11-15T17:23:00.196Z,4.72
2022-11-15T17:25:26.734Z,4.78
2022-11-15T17:27:53.339Z,4.85
2022-11-15T17:30:20.362Z,4.88
2022-11-15T17:32:49.764Z,4.85
2022-11-15T17:35:16.456Z,4.45
2022-11-15T17:37:43.410Z,5.03
2022-11-15T17:40:10.468Z,5.32
2022-11-15T17:42:36.968Z,5.20
2022-11-15T17:45:09.325Z,5.80
2022-11-15T17:47:37.140Z,5.63
2022-11-15T17:50:04.206Z,4.88
2022-11-15T17:52:30.764Z,5.07
2022-11-15T17:54:57.222Z,5.30
2022-11-15T17:57:24.143Z,4.65
2022-11-15T17:59:50.651Z,5.05
2022-11-15T18:02:20.597Z,5.50
2022-11-15T18:04:47.086Z,5.43
2022-11-15T18:07:14.037Z,5.30
2022-11-15T18:09:43.715Z,5.65
2022-11-15T18:12:11.260Z,6.13
2022-11-15T18:14:37.715Z,6.13
2022-11-15T18:17:04.242Z,6.57
2022-11-15T18:19:30.705Z,6.38
2022-11-15T18:21:57.366Z,6.50
2022-11-15T18:24:25.659Z,6.00
2022-11-15T18:26:52.175Z,6.90
2022-11-15T18:29:19.798Z,7.90
2022-11-15T18:31:50.033Z,7.38
2022-11-15T18:34:17.519Z,7.35
2022-11-15T18:36:44.066Z,6.63
2022-11-15T18:39:16.300Z,7.07
2022-11-15T18:41:44.077Z,6.68
2022-11-15T18:44:10.681Z,6.78
2022-11-15T18:46:38.786Z,6.90
2022-11-15T18:49:07.520Z,6.53
2022-11-15T18:51:35.566Z,6.65
2022-11-15T18:54:02.739Z,6.28
2022-11-15T18:56:31.624Z,6.03
2022-11-15T18:59:00.396Z,5.93
2022-11-15T19:01:29.602Z,6.95
2022-11-15T19:03:58.631Z,6.20
2022-11-15T19:06:27.472Z,6.68
2022-11-15T19:08:57.333Z,7.43
2022-11-15T19:11:30.953Z,6.10
2022-11-15T19:14:00.037Z,6.40
2022-11-15T19:16:27.983Z,7.63
2022-11-15T19:18:59.402Z,6.93
2022-11-15T19:21:27.756Z,7.65
2022-11-15T19:23:54.570Z,7.25
2022-11-15T19:26:22.773Z,7.43
2022-11-15T19:28:58.963Z,7.68
2022-11-15T19:31:27.578Z,7.40
2022-11-15T19:33:57.696Z,7.13
2022-11-15T19:36:29.424Z,6.57
2022-11-15T19:38:56.324Z,7.40
2022-11-15T19:41:24.710Z,6.68
2022-11-15T19:43:51.908Z,6.50
2022-11-15T19:46:23.447Z,6.90
2022-11-15T19:48:51.026Z,6.55
2022-11-15T19:51:24.523Z,7.25
2022-11-15T19:53:56.123Z,7.47
2022-11-15T19:56:23.585Z,7.57
2022-11-15T19:58:52.513Z,7.82
2022-11-15T20:01:20.219Z,7.65
2022-11-15T20:03:48.093Z,7.75
2022-11-15T20:06:20.361Z,7.63
2022-11-15T20:08:48.000Z,7.47
2022-11-15T20:11:15.692Z,7.60
2022-11-15T20:13:43.201Z,7.78
2022-11-15T20:16:14.720Z,7.65
2022-11-15T20:18:41.255Z,7.22
2022-11-15T20:21:08.779Z,7.82
2022-11-15T20:23:35.358Z,7.72
2022-11-15T20:26:01.834Z,8.60
2022-11-15T20:28:28.840Z,7.85
2022-11-15T20:31:00.256Z,8.60
2022-11-15T20:33:27.951Z,7.65
2022-11-15T20:35:54.617Z,8.13
2022-11-15T20:38:21.660Z,8.23
2022-11-15T20:40:49.744Z,7.65
2022-11-15T20:43:18.884Z,8.15
2022-11-15T20:45:47.264Z,7.80
2022-11-15T20:48:14.952Z,8.45
2022-11-15T20:50:43.654Z,8.25
2022-11-15T20:53:12.697Z,7.60
2022-11-15T20:55:44.254Z,7.75
2022-11-15T20:58:11.540Z,7.45
2022-11-15T21:00:38.295Z,8.38
2022-11-15T21:03:08.642Z,7.88
2022-11-15T21:05:38.464Z,8.15
2022-11-15T21:08:05.234Z,7.97
2022-11-15T21:10:50.675Z,8.02
2022-11-15T21:13:17.252Z,7.80
2022-11-15T21:15:43.838Z,7.63
2022-11-15T21:18:10.365Z,7.85
2022-11-15T21:20:36.836Z,10.50
2022-11-15T21:23:03.452Z,9.88
2022-11-15T21:25:29.927Z,9.95
2022-11-15T21:27:56.591Z,10.43
2022-11-15T21:30:23.125Z,9.57
2022-11-15T21:32:49.732Z,8.43
2022-11-15T21:35:16.373Z,8.63
2022-11-15T21:37:42.913Z,8.98
2022-11-15T21:40:10.175Z,8.57
2022-11-15T21:42:36.655Z,9.68
2022-11-15T21:45:03.571Z,9.02
2022-11-15T21:47:30.021Z,9.13
2022-11-15T21:49:56.530Z,9.57
2022-11-15T21:52:22.999Z,10.15
2022-11-15T21:54:49.490Z,9.35
2022-11-15T21:57:15.928Z,9.23
2022-11-15T22:00:02.367Z,8.82
2022-11-15T22:02:28.804Z,8.38
2022-11-15T22:04:55.302Z,7.53
2022-11-15T22:07:23.191Z,7.97
2022-11-15T22:09:49.891Z,6.85
2022-11-15T22:12:16.338Z,6.85
2022-11-15T22:14:42.835Z,6.43
2022-11-15T22:17:09.330Z,7.45
2022-11-15T22:19:40.403Z,6.95
2022-11-15T22:22:14.055Z,6.00
2022-11-15T22:24:40.528Z,5.50
2022-11-15T22:27:07.113Z,4.47
2022-11-15T22:29:33.598Z,4.85
2022-11-15T22:32:00.132Z,4.32
2022-11-15T22:34:26.666Z,5.43
2022-11-15T22:37:19.102Z,5.30
2022-11-15T22:39:41.676Z,5.85
2022-11-15T22:42:08.204Z,5.80
2022-11-15T22:44:34.694Z,6.78
2022-11-15T22:47:01.277Z,6.32
2022-11-15T22:49:27.781Z,7.07
2022-11-15T22:51:54.259Z,7.50
2022-11-15T22:54:20.791Z,6.60
2022-11-15T22:56:47.269Z,6.53
2022-11-15T22:59:13.807Z,6.45
2022-11-15T23:01:40.316Z,6.47
2022-11-15T23:04:06.866Z,5.78
2022-11-15T23:06:33.372Z,5.90
2022-11-15T23:08:59.891Z,6.25
2022-11-15T23:11:44.773Z,5.90
2022-11-15T23:14:11.328Z,6.60
2022-11-15T23:16:37.890Z,6.25
2022-11-15T23:19:07.646Z,6.45
2022-11-15T23:21:52.789Z,6.20
2022-11-15T23:24:20.245Z,6.03
2022-11-15T23:26:49.953Z,6.00
2022-11-15T23:29:19.612Z,6.40
2022-11-15T23:32:04.835Z,6.10
2022-11-15T23:34:32.419Z,5.82
2022-11-15T23:36:59.727Z,5.68
2022-11-15T23:39:26.645Z,5.80
2022-11-15T23:41:56.312Z,6.18
2022-11-15T23:44:23.337Z,6.47
2022-11-15T23:46:49.889Z,6.50
2022-11-15T23:49:16.729Z,6.40
2022-11-15T23:51:43.352Z,7.07
2022-11-15T23:54:10.633Z,6.55
2022-11-15T23:56:37.797Z,6.68
2022-11-15T23:59:05.348Z,6.97
